This is the latest recevied weather packets stored in our database for station/object OE-11061. If no packets are shown the sender has not sent any weather packets the latest 10 day(s).
| Time | Temp. | Humidity | Pressure | Rain* | Wind** | Luminosity | Snow |
|---|---|---|---|---|---|---|---|
| 1788041121 | 15° C | 89% | 1016.9 hPa | 0 mm | - | 0 W/m² | - |
| 1788040521 | 15° C | 90% | 1016.8 hPa | 0 mm | - | 0 W/m² | - |
| 1788039694 | 15° C | 89% | 1016.7 hPa | 0 mm | - | 0 W/m² | - |
| 1788039321 | 14.44° C | 90% | 1016.7 hPa | 0 mm | - | 0 W/m² | - |
| 1788038721 | 15° C | 88% | 1016.6 hPa | 0 mm | - | 0 W/m² | - |
| 1788037894 | 15.56° C | 88% | 1016.6 hPa | 0 mm | - | 0 W/m² | - |
| 1788037520 | 15° C | 88% | 1016.5 hPa | 0 mm | - | 0 W/m² | - |
| 1788036921 | 15° C | 88% | 1016.6 hPa | 0 mm | - | 0 W/m² | - |
| 1788036094 | 15.56° C | 86% | 1016.5 hPa | 0 mm | - | 0 W/m² | - |
| 1788035720 | 15.56° C | 85% | 1016.4 hPa | 0 mm | - | 0 W/m² | - |
| 1788035121 | 15.56° C | 85% | 1016.4 hPa | 0 mm | - | 0 W/m² | - |
| 1788034294 | 16.11° C | 84% | 1016.3 hPa | 0 mm | - | 0 W/m² | - |
| 1788033921 | 16.11° C | 84% | 1016.2 hPa | 0 mm | - | 0 W/m² | - |
| 1788033321 | 16.67° C | 84% | 1016.3 hPa | 0 mm | - | 0 W/m² | - |
| 1788032494 | 16.67° C | 85% | 1016.2 hPa | 0 mm | - | 0 W/m² | - |
| 1788032121 | 17.22° C | 81% | 1016 hPa | 0 mm | - | 0 W/m² | - |
| 1788031521 | 17.22° C | 80% | 1015.8 hPa | 0 mm | - | 0 W/m² | - |
| 1788030694 | 17.78° C | 79% | 1015.7 hPa | 0 mm | - | 0 W/m² | - |
| 1788030321 | 18.33° C | 73% | 1015.6 hPa | 0 mm | - | 0 W/m² | - |
| 1788029721 | 17.78° C | 81% | 1015.6 hPa | 0 mm | - | 0 W/m² | - |
| 1788028894 | 18.33° C | 80% | 1015.5 hPa | 0 mm | - | 0 W/m² | - |
| 1788028521 | 18.89° C | 77% | 1015.3 hPa | 0 mm | - | 0 W/m² | - |
| 1788027921 | 19.44° C | 76% | 1015.2 hPa | 0 mm | - | 0 W/m² | - |
| 1788027094 | 20° C | 74% | 1015 hPa | 0 mm | - | 7 W/m² | - |
| 1788026721 | 21.11° C | 67% | 1014.8 hPa | 0 mm | - | 22 W/m² | - |
* Rain latest hour (hover to see other rain measurements)
** Current wind speed in m/s (hover to see current wind gust speed)